Time;durP1;ratioP1;P1;durP2;ratioP2;P2;SDS_P1;SDS_P2;PMS_P1;PMS_P2;Temp;Humidity;BMP_temperature;BMP_pressure;BME280_temperature;BME280_humidity;BME280_pressure;Samples;Min_cycle;Max_cycle;Signal;HPM_P1;HPM_P2
2022/04/30 00:00:50;;;;;;;8.82;6.85;;;;;;;-140.79;100.00;63287.88;5044758;28;20516;-51
2022/04/30 00:03:15;;;;;;;9.32;7.25;;;;;;;-140.79;100.00;63287.88;5044074;28;20466;-52
2022/04/30 00:05:41;;;;;;;9.52;7.28;;;;;;;-140.79;100.00;63287.88;5044987;28;20138;-51
2022/04/30 00:08:06;;;;;;;9.18;7.35;;;;;;;-140.79;100.00;63287.88;5044486;28;20182;-52
2022/04/30 00:10:37;;;;;;;11.35;7.50;;;;;;;-140.79;100.00;63287.88;5044073;28;20021;-51
2022/04/30 00:13:02;;;;;;;;;;;;;;;-140.79;100.00;63287.88;5044802;28;20140;-51
2022/04/30 00:15:28;;;;;;;10.38;8.20;;;;;;;-140.79;100.00;63287.88;5044615;28;20465;-51
2022/04/30 00:17:54;;;;;;;8.70;7.15;;;;;;;-140.79;100.00;63287.88;5044347;28;20474;-51
2022/04/30 00:20:20;;;;;;;9.00;7.35;;;;;;;-140.79;100.00;63287.88;5045004;28;20063;-51
2022/04/30 00:22:45;;;;;;;10.27;8.07;;;;;;;-140.79;100.00;63287.88;5044211;28;20057;-51
2022/04/30 00:25:11;;;;;;;9.40;7.03;;;;;;;-140.79;100.00;63287.88;5044060;28;20501;-52
2022/04/30 00:27:36;;;;;;;11.85;7.45;;;;;;;-140.79;100.00;63287.88;5044230;28;20044;-51
2022/04/30 00:30:03;;;;;;;8.15;6.63;;;;;;;-140.79;100.00;63287.88;5043586;28;20456;-51
2022/04/30 00:32:30;;;;;;;8.70;6.90;;;;;;;-140.79;100.00;63287.88;5043626;28;20063;-51
2022/04/30 00:34:55;;;;;;;9.88;7.07;;;;;;;-140.79;100.00;63287.88;5026909;28;20511;-52
2022/04/30 00:37:20;;;;;;;9.32;6.93;;;;;;;-140.79;100.00;63287.88;5044396;28;20029;-50
2022/04/30 00:39:46;;;;;;;9.20;7.15;;;;;;;-140.79;100.00;63287.88;5044534;28;20029;-51
2022/04/30 00:42:12;;;;;;;9.32;7.05;;;;;;;-140.79;100.00;63287.88;5026782;28;20039;-51
2022/04/30 00:44:37;;;;;;;9.57;7.38;;;;;;;-140.79;100.00;63287.88;5044385;28;20044;-52
2022/04/30 00:47:03;;;;;;;12.45;7.38;;;;;;;-140.79;100.00;63287.88;5044560;28;20029;-51
2022/04/30 00:49:28;;;;;;;8.20;6.88;;;;;;;-140.79;100.00;63287.88;5044077;28;20478;-51
2022/04/30 00:51:54;;;;;;;9.20;7.25;;;;;;;-140.79;100.00;63287.88;5044360;28;20481;-51
2022/04/30 00:54:22;;;;;;;9.52;7.05;;;;;;;-140.79;100.00;63287.88;5026542;28;20029;-51
2022/04/30 00:56:50;;;;;;;9.07;7.20;;;;;;;-140.79;100.00;63287.88;5044237;28;20433;-51
2022/04/30 00:59:19;;;;;;;8.65;7.00;;;;;;;-140.79;100.00;63287.88;5009859;28;20033;-51
2022/04/30 01:01:47;;;;;;;9.70;7.32;;;;;;;-140.79;100.00;63287.88;5043860;28;20027;-51
2022/04/30 01:04:13;;;;;;;9.23;7.32;;;;;;;-140.79;100.00;63287.88;5042124;28;20131;-51
2022/04/30 01:06:57;;;;;;;9.07;6.65;;;;;;;-140.79;100.00;63287.88;5043183;28;21384;-50
2022/04/30 01:09:29;;;;;;;10.23;7.07;;;;;;;-140.79;100.00;63287.88;5044180;28;20451;-50
2022/04/30 01:11:56;;;;;;;8.73;7.00;;;;;;;-140.79;100.00;63287.88;5044069;28;20052;-51
2022/04/30 01:14:21;;;;;;;9.10;7.28;;;;;;;-140.79;100.00;63287.88;5043652;28;20037;-51
2022/04/30 01:16:46;;;;;;;9.40;7.50;;;;;;;-140.79;100.00;63287.88;5044598;28;20041;-51
2022/04/30 01:19:18;;;;;;;8.18;6.82;;;;;;;-140.79;100.00;63287.88;5026268;28;20408;-51
2022/04/30 01:21:45;;;;;;;8.80;6.68;;;;;;;-140.79;100.00;63287.88;5026639;28;20037;-50
2022/04/30 01:24:11;;;;;;;9.80;7.45;;;;;;;-140.79;100.00;63287.88;5009826;28;20025;-50
2022/04/30 01:26:36;;;;;;;9.25;7.20;;;;;;;-140.79;100.00;63287.88;5026136;28;20424;-50
2022/04/30 01:29:02;;;;;;;8.48;7.20;;;;;;;-140.79;100.00;63287.88;5026129;28;20021;-52
2022/04/30 01:39:39;;;;;;;9.07;7.07;;;;;;;-140.79;100.00;63287.88;5043926;28;20032;-53
2022/04/30 01:42:11;;;;;;;10.00;6.80;;;;;;;-140.79;100.00;63287.88;5043486;28;20052;-52
2022/04/30 01:44:41;;;;;;;7.95;6.65;;;;;;;-140.79;100.00;63287.88;5043039;28;20404;-51
2022/04/30 01:47:06;;;;;;;9.35;7.10;;;;;;;-140.79;100.00;63287.88;5025621;28;20033;-51
2022/04/30 01:49:32;;;;;;;8.25;6.47;;;;;;;-140.79;100.00;63287.88;5025584;28;20043;-51
2022/04/30 01:51:57;;;;;;;9.52;6.95;;;;;;;-140.79;100.00;63287.88;5045402;28;20032;-54
2022/04/30 01:54:23;;;;;;;9.10;7.07;;;;;;;-140.79;100.00;63287.88;5029334;28;20420;-52
2022/04/30 01:56:48;;;;;;;7.75;6.45;;;;;;;-140.79;100.00;63287.88;5047540;28;20033;-51
2022/04/30 01:59:14;;;;;;;8.38;6.90;;;;;;;-140.79;100.00;63287.88;5047305;28;20094;-51
2022/04/30 02:01:39;;;;;;;8.27;6.57;;;;;;;-140.79;100.00;63287.88;5046695;28;20087;-51
2022/04/30 02:04:05;;;;;;;9.35;6.93;;;;;;;-140.79;100.00;63287.88;5012925;28;20162;-54
2022/04/30 02:06:30;;;;;;;8.23;7.07;;;;;;;-140.79;100.00;63287.88;5029175;28;20424;-51
2022/04/30 02:08:56;;;;;;;8.20;6.53;;;;;;;-140.79;100.00;63287.88;5012608;28;20044;-51
2022/04/30 02:11:21;;;;;;;8.13;6.70;;;;;;;-140.79;100.00;63287.88;5029114;28;20052;-51
2022/04/30 02:13:52;;;;;;;8.60;6.75;;;;;;;-140.79;100.00;63287.88;5046758;28;20096;-51
2022/04/30 02:16:20;;;;;;;8.20;6.70;;;;;;;-140.79;100.00;63287.88;5014349;28;20964;-51
2022/04/30 02:18:46;;;;;;;7.60;6.60;;;;;;;-140.79;100.00;63287.88;5029121;28;20036;-51
2022/04/30 02:21:11;;;;;;;9.05;6.60;;;;;;;-140.79;100.00;63287.88;5047007;28;20021;-51
2022/04/30 02:23:38;;;;;;;8.40;6.93;;;;;;;-140.79;100.00;63287.88;5028964;28;20021;-51
2022/04/30 02:26:04;;;;;;;8.38;6.55;;;;;;;-140.79;100.00;63287.88;5028694;28;20451;-51
2022/04/30 02:28:30;;;;;;;8.43;6.65;;;;;;;-140.79;100.00;63287.88;5029465;28;20458;-51
2022/04/30 02:30:56;;;;;;;9.18;6.80;;;;;;;-140.79;100.00;63287.88;5046163;28;20017;-51
2022/04/30 02:33:22;;;;;;;7.88;6.15;;;;;;;-140.79;100.00;63287.88;5046429;28;20029;-52
2022/04/30 02:35:47;;;;;;;7.95;6.53;;;;;;;-140.79;100.00;63287.88;5046759;28;20436;-52
2022/04/30 02:38:13;;;;;;;6.68;5.97;;;;;;;-140.79;100.00;63287.88;5028884;28;20036;-52
2022/04/30 02:40:40;;;;;;;8.60;6.90;;;;;;;-140.79;100.00;63287.88;5046813;28;20029;-52
2022/04/30 02:43:07;;;;;;;7.70;6.68;;;;;;;-140.79;100.00;63287.88;5046367;28;20101;-52
2022/04/30 02:45:33;;;;;;;8.57;6.25;;;;;;;-140.79;100.00;63287.88;5046499;28;20051;-52
2022/04/30 02:47:58;;;;;;;8.35;6.22;;;;;;;-140.79;100.00;63287.88;5046576;28;20523;-51
2022/04/30 02:50:24;;;;;;;8.05;6.07;;;;;;;-140.79;100.00;63287.88;5028917;28;20021;-52
2022/04/30 02:52:50;;;;;;;7.97;6.35;;;;;;;-140.79;100.00;63287.88;5046069;28;20017;-52
2022/04/30 02:55:16;;;;;;;7.72;6.03;;;;;;;-140.79;100.00;63287.88;5046210;28;20021;-52
2022/04/30 03:00:40;;;;;;;8.32;6.30;;;;;;;-140.79;100.00;63287.88;5046146;28;20036;-52
2022/04/30 03:03:09;;;;;;;7.75;6.50;;;;;;;-140.79;100.00;63287.88;5045316;28;20058;-51
2022/04/30 03:05:35;;;;;;;7.13;6.20;;;;;;;-140.79;100.00;63287.88;5043721;28;20029;-51
2022/04/30 03:08:04;;;;;;;7.95;6.45;;;;;;;-140.79;100.00;63287.88;5028122;28;20205;-51
2022/04/30 03:10:29;;;;;;;7.10;6.05;;;;;;;-140.79;100.00;63287.88;5046019;28;20040;-51
2022/04/30 03:12:55;;;;;;;8.13;6.43;;;;;;;-140.79;100.00;63287.88;5045710;28;20033;-52
2022/04/30 03:15:22;;;;;;;6.80;5.70;;;;;;;-140.79;100.00;63287.88;5046048;28;20033;-52
2022/04/30 03:23:16;;;;;;;7.90;6.53;;;;;;;-140.79;100.00;63287.88;5030804;28;20518;-51
2022/04/30 03:25:42;;;;;;;8.32;6.47;;;;;;;-140.79;100.00;63287.88;5045422;28;20045;-52
2022/04/30 03:28:07;;;;;;;7.72;6.05;;;;;;;-140.79;100.00;63287.88;5045886;28;20025;-52
2022/04/30 03:30:32;;;;;;;7.47;6.38;;;;;;;-140.79;100.00;63287.88;5025382;28;20025;-52
2022/04/30 03:32:58;;;;;;;7.47;5.90;;;;;;;-140.79;100.00;63287.88;5023567;28;20021;-52
2022/04/30 03:35:23;;;;;;;8.18;6.20;;;;;;;-140.79;100.00;63287.88;5025964;28;20077;-51
2022/04/30 03:37:49;;;;;;;7.00;5.88;;;;;;;-140.79;100.00;63287.88;5031683;28;20727;-52
2022/04/30 03:40:14;;;;;;;7.45;6.32;;;;;;;-140.79;100.00;63287.88;5026459;28;20025;-52
2022/04/30 03:42:40;;;;;;;6.70;5.78;;;;;;;-140.79;100.00;63287.88;5025892;28;20048;-51
2022/04/30 03:45:06;;;;;;;8.10;6.10;;;;;;;-140.79;100.00;63287.88;5030163;28;20338;-51
2022/04/30 03:47:31;;;;;;;8.40;6.35;;;;;;;-140.79;100.00;63287.88;5006506;28;20419;-52
2022/04/30 03:49:59;;;;;;;7.90;6.03;;;;;;;-140.79;100.00;63287.88;5028045;28;20020;-52
2022/04/30 03:52:24;;;;;;;7.05;5.50;;;;;;;-140.79;100.00;63287.88;5029531;28;20025;-53
2022/04/30 03:54:50;;;;;;;9.52;7.70;;;;;;;-140.79;100.00;63287.88;5027785;28;20029;-53
2022/04/30 03:57:15;;;;;;;9.07;7.03;;;;;;;-140.79;100.00;63287.88;5026190;28;20041;-53
2022/04/30 03:59:40;;;;;;;8.77;6.85;;;;;;;-140.79;100.00;63287.88;5027579;28;20033;-53
2022/04/30 04:02:06;;;;;;;9.77;7.03;;;;;;;-140.79;100.00;63287.88;5035779;28;20029;-53
2022/04/30 04:04:31;;;;;;;9.02;6.97;;;;;;;-140.79;100.00;63287.88;5045300;28;20048;-52
2022/04/30 04:06:57;;;;;;;10.30;7.15;;;;;;;-140.79;100.00;63287.88;5046127;28;20033;-52
2022/04/30 04:09:23;;;;;;;8.90;7.28;;;;;;;-140.79;100.00;63287.88;5045479;28;20052;-52
2022/04/30 04:11:48;;;;;;;8.73;6.97;;;;;;;-140.79;100.00;63287.88;5044990;28;20029;-51
2022/04/30 04:19:41;;;;;;;10.43;7.00;;;;;;;-140.79;100.00;63287.88;5029621;28;20039;-53
2022/04/30 04:22:07;;;;;;;10.52;7.57;;;;;;;-140.79;100.00;63287.88;5044530;28;20522;-52
2022/04/30 04:27:18;;;;;;;10.30;7.32;;;;;;;-140.79;100.00;63287.88;5044263;28;20056;-52
2022/04/30 04:29:45;;;;;;;9.43;7.45;;;;;;;-140.79;100.00;63287.88;5044453;28;20021;-52
2022/04/30 04:32:10;;;;;;;9.90;7.22;;;;;;;-140.79;100.00;63287.88;5043817;28;20025;-53
2022/04/30 04:34:36;;;;;;;9.50;7.07;;;;;;;-140.79;100.00;63287.88;5043011;28;20029;-52
2022/04/30 04:37:01;;;;;;;9.38;7.05;;;;;;;-140.79;100.00;63287.88;5044376;28;20025;-54
2022/04/30 04:39:27;;;;;;;9.40;7.03;;;;;;;-140.79;100.00;63287.88;5044187;28;20056;-53
2022/04/30 04:41:52;;;;;;;9.13;7.30;;;;;;;-140.79;100.00;63287.88;5043952;28;20024;-52
2022/04/30 04:44:18;;;;;;;9.18;7.60;;;;;;;-140.79;100.00;63287.88;5043817;28;20024;-54
2022/04/30 04:46:43;;;;;;;9.07;7.20;;;;;;;-140.79;100.00;63287.88;5034609;28;20094;-53
2022/04/30 04:49:09;;;;;;;9.88;7.38;;;;;;;-140.79;100.00;63287.88;5023393;28;20033;-52
2022/04/30 04:51:34;;;;;;;10.35;7.65;;;;;;;-140.79;100.00;63287.88;5006369;28;20476;-52
2022/04/30 04:54:01;;;;;;;10.57;7.28;;;;;;;-140.79;100.00;63287.88;5023612;28;20056;-52
2022/04/30 04:56:27;;;;;;;8.25;6.68;;;;;;;-140.79;100.00;63287.88;5023770;28;20228;-51
2022/04/30 04:58:52;;;;;;;7.82;6.90;;;;;;;-140.79;100.00;63287.88;5024111;28;20607;-52
2022/04/30 05:01:18;;;;;;;9.50;7.43;;;;;;;-140.79;100.00;63287.88;5026663;28;20033;-52
2022/04/30 05:03:43;;;;;;;9.18;7.10;;;;;;;-140.79;100.00;63287.88;5041476;28;20572;-51
2022/04/30 05:06:08;;;;;;;8.75;7.45;;;;;;;-140.79;100.00;63287.88;5043049;28;20028;-52
2022/04/30 05:08:34;;;;;;;8.65;6.97;;;;;;;-140.79;100.00;63287.88;5033718;28;20412;-54
2022/04/30 05:10:59;;;;;;;8.32;6.90;;;;;;;-140.79;100.00;63287.88;5024233;28;20043;-52
2022/04/30 05:13:25;;;;;;;11.05;7.45;;;;;;;-140.79;100.00;63287.88;5037676;28;20052;-54
2022/04/30 05:15:50;;;;;;;9.02;6.97;;;;;;;-140.79;100.00;63287.88;5044456;28;20201;-54
2022/04/30 05:18:16;;;;;;;10.82;7.55;;;;;;;-140.79;100.00;63287.88;5044022;28;20021;-52
2022/04/30 05:20:41;;;;;;;9.40;6.88;;;;;;;-140.79;100.00;63287.88;5026160;28;20021;-55
2022/04/30 05:23:07;;;;;;;11.15;6.95;;;;;;;-140.79;100.00;63287.88;5043502;28;20136;-53
2022/04/30 05:25:32;;;;;;;9.13;7.03;;;;;;;-140.79;100.00;63287.88;5042909;28;20767;-52
2022/04/30 05:27:57;;;;;;;9.40;7.47;;;;;;;-140.79;100.00;63287.88;5047326;28;20040;-52
2022/04/30 05:30:24;;;;;;;10.02;7.85;;;;;;;-140.79;100.00;63287.88;5048342;28;20472;-54
2022/04/30 05:32:49;;;;;;;8.75;7.50;;;;;;;-140.79;100.00;63287.88;5047248;28;20383;-53
2022/04/30 05:35:14;;;;;;;8.98;7.53;;;;;;;-140.79;100.00;63287.88;5029524;28;20518;-53
2022/04/30 05:37:40;;;;;;;9.02;6.85;;;;;;;-140.79;100.00;63287.88;5047752;28;20047;-53
2022/04/30 05:40:06;;;;;;;8.70;7.13;;;;;;;-140.79;100.00;63287.88;5047787;28;20024;-53
2022/04/30 05:42:32;;;;;;;8.48;7.00;;;;;;;-140.79;100.00;63287.88;5047770;28;20155;-53
2022/04/30 05:44:58;;;;;;;8.88;7.32;;;;;;;-140.79;100.00;63287.88;5029748;28;20036;-52
2022/04/30 05:47:24;;;;;;;9.00;6.85;;;;;;;-140.79;100.00;63287.88;5047332;28;20045;-52
2022/04/30 05:49:49;;;;;;;9.23;7.00;;;;;;;-140.79;100.00;63287.88;5046754;28;20414;-52
2022/04/30 05:52:15;;;;;;;8.18;7.10;;;;;;;-140.79;100.00;63287.88;5047510;28;20025;-53
2022/04/30 05:54:40;;;;;;;9.50;6.95;;;;;;;-140.79;100.00;63287.88;5047217;28;20400;-53
2022/04/30 05:57:06;;;;;;;9.10;6.80;;;;;;;-140.79;100.00;63287.88;5047247;28;20423;-52
2022/04/30 05:59:31;;;;;;;8.90;6.88;;;;;;;-140.79;100.00;63287.88;5047830;28;20413;-54
2022/04/30 06:01:57;;;;;;;8.43;6.80;;;;;;;-140.79;100.00;63287.88;5046167;28;20411;-53
2022/04/30 06:04:22;;;;;;;8.65;6.90;;;;;;;-140.79;100.00;63287.88;5046912;28;20345;-52
2022/04/30 06:06:48;;;;;;;8.10;6.78;;;;;;;-140.79;100.00;63287.88;5037069;28;20037;-52
2022/04/30 06:09:13;;;;;;;9.10;6.78;;;;;;;-140.79;100.00;63287.88;5026114;28;20064;-53
2022/04/30 06:11:39;;;;;;;9.00;6.45;;;;;;;-140.79;100.00;63287.88;5025845;28;20682;-52
2022/04/30 06:14:04;;;;;;;8.43;6.95;;;;;;;-140.79;100.00;63287.88;5026156;28;20049;-52
2022/04/30 06:16:30;;;;;;;9.48;6.90;;;;;;;-140.79;100.00;63287.88;5025660;28;20472;-52
2022/04/30 06:18:55;;;;;;;9.50;7.15;;;;;;;-140.79;100.00;63287.88;5025249;28;20021;-52
2022/04/30 06:21:22;;;;;;;8.50;6.93;;;;;;;-140.79;100.00;63287.88;5027041;28;20029;-52
2022/04/30 06:23:47;;;;;;;9.57;6.97;;;;;;;-140.79;100.00;63287.88;5025959;28;20024;-52
2022/04/30 06:26:13;;;;;;;10.88;7.63;;;;;;;-140.79;100.00;63287.88;5028852;28;20045;-53
2022/04/30 06:28:39;;;;;;;9.27;7.05;;;;;;;-140.79;100.00;63287.88;5046934;28;20035;-51
2022/04/30 06:31:04;;;;;;;12.98;7.75;;;;;;;-140.79;100.00;63287.88;5023821;28;20021;-53
2022/04/30 06:33:30;;;;;;;8.93;6.93;;;;;;;-140.79;100.00;63287.88;5027999;28;20480;-53
2022/04/30 06:35:55;;;;;;;10.80;7.60;;;;;;;-140.79;100.00;63287.88;5025906;28;20392;-52
2022/04/30 06:38:21;;;;;;;9.38;6.35;;;;;;;-140.79;100.00;63287.88;5027432;28;20036;-53
2022/04/30 06:40:47;;;;;;;8.05;6.35;;;;;;;-140.79;100.00;63287.88;5027056;28;20029;-53
2022/04/30 06:43:13;;;;;;;7.80;6.90;;;;;;;-140.79;100.00;63287.88;5026842;28;20033;-55
2022/04/30 06:45:39;;;;;;;7.57;6.00;;;;;;;-140.79;100.00;63287.88;5024949;28;20029;-53
2022/04/30 06:48:04;;;;;;;8.32;6.63;;;;;;;-140.79;100.00;63287.88;5027827;28;20013;-53
2022/04/30 06:50:30;;;;;;;8.27;6.45;;;;;;;-140.79;100.00;63287.88;5027441;28;20439;-53
2022/04/30 06:58:24;;;;;;;6.95;6.07;;;;;;;-140.79;100.00;63287.88;5026260;28;20032;-54
2022/04/30 07:03:26;;;;;;;7.40;6.28;;;;;;;-140.79;100.00;63287.88;5026799;28;20026;-53
2022/04/30 07:05:51;;;;;;;9.07;6.90;;;;;;;-140.79;100.00;63287.88;5029447;28;20037;-54
2022/04/30 07:08:17;;;;;;;7.65;5.95;;;;;;;-140.79;100.00;63287.88;5024999;28;20032;-55
2022/04/30 07:10:42;;;;;;;7.03;6.30;;;;;;;-140.79;100.00;63287.88;5025115;28;20077;-53
2022/04/30 07:13:08;;;;;;;7.53;6.18;;;;;;;-140.79;100.00;63287.88;5036782;28;20389;-54
2022/04/30 07:15:33;;;;;;;8.38;6.05;;;;;;;-140.79;100.00;63287.88;5027738;28;20035;-53
2022/04/30 07:17:59;;;;;;;9.98;6.10;;;;;;;-140.79;100.00;63287.88;5045837;28;20511;-53
2022/04/30 07:20:24;;;;;;;7.57;6.13;;;;;;;-140.79;100.00;63287.88;5045697;28;20550;-53
2022/04/30 07:22:50;;;;;;;10.45;6.18;;;;;;;-140.79;100.00;63287.88;5045995;28;20619;-53
2022/04/30 07:25:15;;;;;;;8.70;6.78;;;;;;;-140.79;100.00;63287.88;5045031;28;20072;-56
2022/04/30 07:27:40;;;;;;;6.50;5.50;;;;;;;-140.79;100.00;63287.88;5028448;28;20068;-55
2022/04/30 07:30:06;;;;;;;9.60;6.20;;;;;;;-140.79;100.00;63287.88;5027729;28;20086;-54
2022/04/30 07:32:32;;;;;;;6.82;5.50;;;;;;;-140.79;100.00;63287.88;5045330;28;20036;-52
2022/04/30 07:34:57;;;;;;;6.05;5.45;;;;;;;-140.79;100.00;63287.88;5045723;28;20041;-53
2022/04/30 07:37:23;;;;;;;7.30;6.38;;;;;;;-140.79;100.00;63287.88;5045626;28;20033;-56
2022/04/30 07:39:48;;;;;;;7.00;6.15;;;;;;;-140.79;100.00;63287.88;5045997;28;20029;-56
2022/04/30 07:42:14;;;;;;;7.30;5.63;;;;;;;-140.79;100.00;63287.88;5046171;28;20170;-54
2022/04/30 07:44:39;;;;;;;6.22;5.63;;;;;;;-140.79;100.00;63287.88;5027793;28;20032;-54
2022/04/30 07:47:05;;;;;;;7.03;6.18;;;;;;;-140.79;100.00;63287.88;5044414;28;20036;-55
2022/04/30 07:49:31;;;;;;;6.68;5.65;;;;;;;-140.79;100.00;63287.88;5043966;28;20025;-53
2022/04/30 07:51:56;;;;;;;7.65;6.03;;;;;;;-140.79;100.00;63287.88;5045410;28;20040;-53
2022/04/30 07:54:23;;;;;;;8.77;6.68;;;;;;;-140.79;100.00;63287.88;5037116;28;20060;-53
2022/04/30 07:56:56;;;;;;;7.60;6.13;;;;;;;-140.79;100.00;63287.88;5008952;28;20043;-53
2022/04/30 07:59:22;;;;;;;7.75;5.90;;;;;;;-140.79;100.00;63287.88;5024897;28;20503;-52
2022/04/30 08:01:48;;;;;;;8.60;6.50;;;;;;;-140.79;100.00;63287.88;5032654;28;20029;-54
2022/04/30 08:04:13;;;;;;;9.57;6.47;;;;;;;-140.79;100.00;63287.88;5044910;28;20033;-55
2022/04/30 08:06:39;;;;;;;7.15;6.07;;;;;;;-140.79;100.00;63287.88;5034912;28;20029;-52
2022/04/30 08:09:04;;;;;;;7.82;6.10;;;;;;;-140.79;100.00;63287.88;5023946;28;20018;-57
2022/04/30 08:11:30;;;;;;;8.18;6.20;;;;;;;-140.79;100.00;63287.88;5025198;28;20033;-53
2022/04/30 08:13:55;;;;;;;7.32;5.95;;;;;;;-140.79;100.00;63287.88;5023435;28;20078;-53
2022/04/30 08:16:21;;;;;;;9.10;6.32;;;;;;;-140.79;100.00;63287.88;5020765;28;20028;-53
2022/04/30 08:18:46;;;;;;;7.95;5.63;;;;;;;-140.79;100.00;63287.88;5023855;28;20029;-54
2022/04/30 08:21:11;;;;;;;7.53;6.28;;;;;;;-140.79;100.00;63287.88;5028309;28;20063;-54
2022/04/30 08:23:37;;;;;;;9.23;6.53;;;;;;;-140.79;100.00;63287.88;5023533;28;20613;-53
2022/04/30 08:26:03;;;;;;;8.52;6.30;;;;;;;-140.79;100.00;63287.88;5023673;28;20559;-52
2022/04/30 08:28:28;;;;;;;8.73;6.15;;;;;;;-140.79;100.00;63287.88;5043129;28;20098;-52
2022/04/30 08:30:54;;;;;;;8.13;5.97;;;;;;;-140.79;100.00;63287.88;5029297;28;20124;-54
2022/04/30 08:33:19;;;;;;;7.78;6.00;;;;;;;-140.79;100.00;63287.88;5024277;28;20474;-53
2022/04/30 08:35:46;;;;;;;11.98;5.90;;;;;;;-140.79;100.00;63287.88;5024287;28;20623;-53
2022/04/30 08:38:13;;;;;;;9.40;6.30;;;;;;;-140.79;100.00;63287.88;5023565;28;20491;-54
2022/04/30 08:40:38;;;;;;;12.90;5.75;;;;;;;-140.79;100.00;63287.88;5022716;28;20029;-53
2022/04/30 08:43:13;;;;;;;8.73;5.50;;;;;;;-140.79;100.00;63287.88;4988605;28;20056;-53
2022/04/30 08:45:41;;;;;;;9.02;6.38;;;;;;;-140.79;100.00;63287.88;5024077;28;20048;-53
2022/04/30 08:48:07;;;;;;;7.50;5.75;;;;;;;-140.79;100.00;63287.88;5006868;28;20171;-52
2022/04/30 08:50:32;;;;;;;6.60;5.60;;;;;;;-140.79;100.00;63287.88;5025143;28;20025;-52
2022/04/30 08:52:58;;;;;;;7.40;6.07;;;;;;;-140.79;100.00;63287.88;5024361;28;20039;-52
2022/04/30 08:55:23;;;;;;;7.88;5.40;;;;;;;-140.79;100.00;63287.88;5022928;28;20021;-51
2022/04/30 08:57:49;;;;;;;7.25;5.03;;;;;;;-140.79;100.00;63287.88;5022713;28;20029;-51
2022/04/30 09:00:15;;;;;;;7.07;5.10;;;;;;;-140.79;100.00;63287.88;5025001;28;20558;-53
2022/04/30 09:02:55;;;;;;;6.07;4.72;;;;;;;-140.79;100.00;63287.88;5039231;28;20025;-53
2022/04/30 09:05:21;;;;;;;6.88;4.93;;;;;;;-140.79;100.00;63287.88;5042788;28;20033;-52
2022/04/30 09:07:53;;;;;;;7.25;5.00;;;;;;;-140.79;100.00;63287.88;5043539;28;20056;-53
2022/04/30 09:10:26;;;;;;;5.60;4.78;;;;;;;-140.79;100.00;63287.88;5044371;28;20033;-53
2022/04/30 09:12:52;;;;;;;5.65;4.10;;;;;;;-140.79;100.00;63287.88;5044102;28;20029;-51
2022/04/30 09:15:17;;;;;;;5.55;4.50;;;;;;;-140.79;100.00;63287.88;5044391;28;20037;-53
2022/04/30 09:17:44;;;;;;;7.43;4.43;;;;;;;-140.79;100.00;63287.88;5025718;28;20542;-53
2022/04/30 09:20:16;;;;;;;5.85;4.40;;;;;;;-140.79;100.00;63287.88;5043986;28;20033;-54
2022/04/30 09:22:42;;;;;;;5.85;4.22;;;;;;;-140.79;100.00;63287.88;5025994;28;20036;-52
2022/04/30 09:25:15;;;;;;;5.90;4.15;;;;;;;-140.79;100.00;63287.88;5026232;28;20771;-53
2022/04/30 09:27:49;;;;;;;7.32;4.50;;;;;;;-140.79;100.00;63287.88;5045252;28;20045;-53
2022/04/30 09:30:17;;;;;;;5.30;4.57;;;;;;;-140.79;100.00;63287.88;5045442;28;20108;-54
2022/04/30 09:32:42;;;;;;;5.63;3.88;;;;;;;-140.79;100.00;63287.88;5045265;28;20087;-51
2022/04/30 09:38:05;;;;;;;6.32;4.03;;;;;;;-140.79;100.00;63287.88;5045903;28;20032;-52
2022/04/30 09:40:30;;;;;;;4.57;3.75;;;;;;;-140.79;100.00;63287.88;5045307;28;20033;-53
2022/04/30 09:42:56;;;;;;;5.57;3.80;;;;;;;-140.79;100.00;63287.88;5045194;28;20514;-52
2022/04/30 09:45:29;;;;;;;5.38;3.63;;;;;;;-140.79;100.00;63287.88;5045292;28;20029;-52
2022/04/30 09:47:55;;;;;;;4.45;3.22;;;;;;;-140.79;100.00;63287.88;5044504;28;20032;-53
2022/04/30 09:55:55;;;;;;;4.60;3.28;;;;;;;-140.79;100.00;63287.88;5029601;28;20067;-53
2022/04/30 09:58:25;;;;;;;5.05;2.83;;;;;;;-140.79;100.00;63287.88;5043186;28;20040;-55
2022/04/30 10:00:58;;;;;;;4.05;3.00;;;;;;;-140.79;100.00;63287.88;5021184;28;20511;-53
2022/04/30 10:03:33;;;;;;;5.68;3.30;;;;;;;-140.79;100.00;63287.88;5044053;28;20419;-54
2022/04/30 10:06:05;;;;;;;5.68;3.35;;;;;;;-140.79;100.00;63287.88;5043444;28;20067;-54
2022/04/30 10:08:32;;;;;;;5.20;3.10;;;;;;;-140.79;100.00;63287.88;5043394;28;20021;-55
2022/04/30 10:11:22;;;;;;;5.15;3.20;;;;;;;-140.79;100.00;63287.88;5026006;28;20123;-51
2022/04/30 10:14:27;;;;;;;4.78;2.70;;;;;;;-140.79;100.00;63287.88;5031599;28;20511;-54
2022/04/30 10:19:36;;;;;;;5.20;3.20;;;;;;;-140.79;100.00;63287.88;5043413;28;20515;-54
2022/04/30 10:22:15;;;;;;;9.25;3.38;;;;;;;-140.79;100.00;63287.88;5035394;28;20030;-53
2022/04/30 10:24:48;;;;;;;9.77;3.15;;;;;;;-140.79;100.00;63287.88;5028311;28;20127;-53
2022/04/30 10:27:14;;;;;;;7.22;2.85;;;;;;;-140.79;100.00;63287.88;5036367;28;20177;-53
2022/04/30 10:29:59;;;;;;;4.18;2.90;;;;;;;-140.79;100.00;63287.88;5049055;28;20025;-55
2022/04/30 10:32:30;;;;;;;4.53;2.90;;;;;;;-140.79;100.00;63287.88;5049081;28;20055;-53
2022/04/30 10:34:56;;;;;;;6.30;3.10;;;;;;;-140.79;100.00;63287.88;5046678;28;20029;-54
2022/04/30 10:37:34;;;;;;;4.60;3.63;;;;;;;-140.79;100.00;63287.88;5047081;28;20051;-53
2022/04/30 10:40:05;;;;;;;6.50;3.80;;;;;;;-140.79;100.00;63287.88;5042671;28;20491;-53
2022/04/30 10:42:40;;;;;;;5.57;4.25;;;;;;;-140.79;100.00;63287.88;5008858;28;20075;-54
2022/04/30 10:45:07;;;;;;;4.65;3.40;;;;;;;-140.79;100.00;63287.88;5026696;28;20120;-54
2022/04/30 10:47:33;;;;;;;5.30;3.65;;;;;;;-140.79;100.00;63287.88;5026924;28;20021;-54
2022/04/30 10:49:58;;;;;;;3.75;2.90;;;;;;;-140.79;100.00;63287.88;5026014;28;20422;-52
2022/04/30 10:52:26;;;;;;;5.90;3.60;;;;;;;-140.79;100.00;63287.88;5026028;28;20018;-54
2022/04/30 10:54:54;;;;;;;6.18;3.97;;;;;;;-140.79;100.00;63287.88;5027425;28;20088;-54
2022/04/30 10:57:20;;;;;;;4.57;3.22;;;;;;;-140.79;100.00;63287.88;5027201;28;20678;-54
2022/04/30 10:59:56;;;;;;;4.95;3.28;;;;;;;-140.79;100.00;63287.88;5008699;28;20083;-55
2022/04/30 11:02:21;;;;;;;4.05;3.40;;;;;;;-140.79;100.00;63287.88;5039324;28;20091;-55
2022/04/30 11:04:47;;;;;;;5.32;3.42;;;;;;;-140.79;100.00;63287.88;5045689;28;20021;-53
2022/04/30 11:07:13;;;;;;;5.70;3.40;;;;;;;-140.79;100.00;63287.88;5046601;28;20029;-54
2022/04/30 11:09:42;;;;;;;4.40;3.42;;;;;;;-140.79;100.00;63287.88;5011218;28;20115;-54
2022/04/30 11:12:12;;;;;;;5.07;3.38;;;;;;;-140.79;100.00;63287.88;5027924;28;20516;-55
2022/04/30 11:14:38;;;;;;;6.03;3.20;;;;;;;-140.79;100.00;63287.88;5012072;28;20049;-54
2022/04/30 11:17:03;;;;;;;5.80;3.50;;;;;;;-140.79;100.00;63287.88;5030096;28;20521;-54
2022/04/30 11:19:29;;;;;;;3.83;3.10;;;;;;;-140.79;100.00;63287.88;5026552;28;20029;-55
2022/04/30 11:21:55;;;;;;;4.20;3.20;;;;;;;-140.79;100.00;63287.88;5026237;28;20055;-56
2022/04/30 11:24:30;;;;;;;4.78;2.97;;;;;;;-140.79;100.00;63287.88;5025901;28;20036;-55
2022/04/30 11:26:59;;;;;;;6.82;3.42;;;;;;;-140.79;100.00;63287.88;5028993;28;20056;-54
2022/04/30 11:29:25;;;;;;;3.85;3.13;;;;;;;-140.79;100.00;63287.88;5026759;28;20037;-55
2022/04/30 11:31:53;;;;;;;3.83;3.00;;;;;;;-140.79;100.00;63287.88;5025826;28;20022;-53
2022/04/30 11:34:19;;;;;;;3.53;2.88;;;;;;;-140.79;100.00;63287.88;5026033;28;20957;-54
2022/04/30 11:36:52;;;;;;;4.50;3.30;;;;;;;-140.79;100.00;63287.88;5029162;28;20427;-54
2022/04/30 11:39:19;;;;;;;3.33;2.38;;;;;;;-140.79;100.00;63287.88;5029924;28;20033;-54
2022/04/30 11:41:49;;;;;;;5.05;2.67;;;;;;;-140.79;100.00;63287.88;5028759;28;20030;-54
2022/04/30 11:44:17;;;;;;;3.65;2.65;;;;;;;-140.79;100.00;63287.88;5022107;28;20033;-55
2022/04/30 11:46:43;;;;;;;4.35;2.70;;;;;;;-140.79;100.00;63287.88;5025737;28;20031;-54
2022/04/30 11:49:10;;;;;;;3.65;2.50;;;;;;;-140.79;100.00;63287.88;5028781;28;20092;-56
2022/04/30 11:51:36;;;;;;;3.47;2.63;;;;;;;-140.79;100.00;63287.88;5024449;28;20076;-55